createdAt,value
2016-11-26T00:00:16.360Z,1011.71
2016-11-26T00:01:16.538Z,1011.72
2016-11-26T00:02:16.583Z,1011.65
2016-11-26T00:03:16.150Z,1011.64
2016-11-26T00:04:16.150Z,1011.58
2016-11-26T00:05:16.501Z,1011.56
2016-11-26T00:06:16.489Z,1011.63
2016-11-26T00:07:16.022Z,1011.64
2016-11-26T00:08:16.461Z,1011.67
2016-11-26T00:09:16.733Z,1011.65
2016-11-26T00:10:16.263Z,1011.61
2016-11-26T00:11:16.338Z,1011.63
2016-11-26T00:12:16.486Z,1011.59
2016-11-26T00:13:16.357Z,1011.55
2016-11-26T00:14:16.885Z,1011.53
2016-11-26T00:15:16.452Z,1011.5
2016-11-26T00:16:16.581Z,1011.52
2016-11-26T00:17:16.424Z,1011.51
2016-11-26T00:18:16.473Z,1011.52
2016-11-26T00:19:16.405Z,1011.54
2016-11-26T00:20:16.390Z,1011.48
2016-11-26T00:21:16.521Z,1011.51
2016-11-26T00:22:16.429Z,1011.47
2016-11-26T00:23:17.147Z,1011.46
2016-11-26T00:24:16.426Z,1011.48
2016-11-26T00:25:16.865Z,1011.47
2016-11-26T00:26:16.722Z,1011.5
2016-11-26T00:27:16.644Z,1011.48
2016-11-26T00:28:16.671Z,1011.52
2016-11-26T00:29:16.333Z,1011.43
2016-11-26T00:30:16.689Z,1011.5
2016-11-26T00:31:16.661Z,1011.48
2016-11-26T00:32:16.690Z,1011.48
2016-11-26T00:33:16.688Z,1011.52
2016-11-26T00:34:16.808Z,1011.52
2016-11-26T00:35:16.640Z,1011.53
2016-11-26T00:36:16.540Z,1011.49
2016-11-26T00:37:16.545Z,1011.57
2016-11-26T00:38:16.556Z,1011.57
2016-11-26T00:39:16.550Z,1011.55
2016-11-26T00:40:16.780Z,1011.57
2016-11-26T00:41:16.756Z,1011.54
2016-11-26T00:42:16.833Z,1011.54
2016-11-26T00:43:16.626Z,1011.52
2016-11-26T00:44:16.694Z,1011.49
2016-11-26T00:45:16.747Z,1011.54
2016-11-26T00:46:16.599Z,1011.53
2016-11-26T00:47:16.661Z,1011.51
2016-11-26T00:48:16.550Z,1011.46
2016-11-26T00:49:16.860Z,1011.42
2016-11-26T00:50:17.069Z,1011.43
2016-11-26T00:51:16.646Z,1011.38
2016-11-26T00:52:16.628Z,1011.4
2016-11-26T00:53:16.690Z,1011.44
2016-11-26T00:54:16.629Z,1011.43
2016-11-26T00:55:17.013Z,1011.4
2016-11-26T00:56:16.920Z,1011.4
2016-11-26T00:57:16.720Z,1011.4
2016-11-26T00:58:16.886Z,1011.36
2016-11-26T00:59:16.684Z,1011.35
2016-11-26T01:00:16.931Z,1011.37
2016-11-26T01:01:16.731Z,1011.39
2016-11-26T01:02:16.779Z,1011.44
2016-11-26T01:03:16.788Z,1011.4
2016-11-26T01:04:16.956Z,1011.39
2016-11-26T01:05:16.942Z,1011.42
2016-11-26T01:06:16.981Z,1011.42
2016-11-26T01:07:16.903Z,1011.4
2016-11-26T01:08:17.006Z,1011.42
2016-11-26T01:09:16.960Z,1011.43
2016-11-26T01:10:17.448Z,1011.44
2016-11-26T01:11:16.787Z,1011.43
2016-11-26T01:12:16.891Z,1011.43
2016-11-26T01:13:17.232Z,1011.42
2016-11-26T01:14:16.915Z,1011.4
2016-11-26T01:15:17.090Z,1011.39
2016-11-26T01:16:16.816Z,1011.39
2016-11-26T01:17:16.925Z,1011.43
2016-11-26T01:18:16.932Z,1011.41
2016-11-26T01:19:17.275Z,1011.39
2016-11-26T01:20:17.231Z,1011.39
2016-11-26T01:21:17.240Z,1011.39
2016-11-26T01:22:17.304Z,1011.44
2016-11-26T01:23:17.420Z,1011.46
2016-11-26T01:24:17.035Z,1011.43
2016-11-26T01:25:17.064Z,1011.4
2016-11-26T01:26:17.192Z,1011.41
2016-11-26T01:27:17.118Z,1011.4
2016-11-26T01:28:17.169Z,1011.44
2016-11-26T01:29:17.170Z,1011.44
2016-11-26T01:30:17.266Z,1011.41
2016-11-26T01:31:17.119Z,1011.4
2016-11-26T01:32:17.155Z,1011.39
2016-11-26T01:33:17.582Z,1011.42
2016-11-26T01:34:17.192Z,1011.43
2016-11-26T01:35:17.430Z,1011.42
2016-11-26T01:36:17.546Z,1011.36
2016-11-26T01:37:17.174Z,1011.43
2016-11-26T01:38:17.358Z,1011.41
2016-11-26T01:39:17.283Z,1011.42
2016-11-26T01:40:17.339Z,1011.46
2016-11-26T01:41:17.154Z,1011.39
2016-11-26T01:42:17.368Z,1011.41
2016-11-26T01:43:17.114Z,1011.4
2016-11-26T01:44:17.207Z,1011.32
2016-11-26T01:45:17.472Z,1011.34
2016-11-26T01:46:17.283Z,1011.34
2016-11-26T01:47:17.252Z,1011.31
2016-11-26T01:48:17.585Z,1011.32
2016-11-26T01:49:17.533Z,1011.27
2016-11-26T01:50:17.478Z,1011.27
2016-11-26T01:51:17.197Z,1011.24
2016-11-26T01:52:17.265Z,1011.24
2016-11-26T01:53:17.571Z,1011.24
2016-11-26T01:54:17.969Z,1011.23
2016-11-26T01:55:17.477Z,1011.24
2016-11-26T01:56:17.371Z,1011.22
2016-11-26T01:57:17.475Z,1011.18
2016-11-26T01:58:17.486Z,1011.17
2016-11-26T01:59:17.539Z,1011.17
2016-11-26T02:00:17.492Z,1011.15
2016-11-26T02:01:17.468Z,1011.13
2016-11-26T02:02:17.974Z,1011.1
2016-11-26T02:03:17.482Z,1011.08
2016-11-26T02:04:17.713Z,1011.05
2016-11-26T02:05:17.464Z,1011.04
2016-11-26T02:06:17.418Z,1011.08
2016-11-26T02:07:17.361Z,1011.04
2016-11-26T02:08:17.410Z,1011.1
2016-11-26T02:09:17.621Z,1011.11
2016-11-26T02:10:17.623Z,1011.08
2016-11-26T02:11:17.614Z,1011.1
2016-11-26T02:12:17.782Z,1011.15
2016-11-26T02:13:17.489Z,1011.14
2016-11-26T02:14:17.688Z,1011.14
2016-11-26T02:15:17.837Z,1011.11
2016-11-26T02:16:17.977Z,1011.16
2016-11-26T02:17:17.868Z,1011.1
2016-11-26T02:18:17.948Z,1011.13
2016-11-26T02:19:17.677Z,1011.1
2016-11-26T02:20:17.848Z,1011.12
2016-11-26T02:21:17.912Z,1011.09
2016-11-26T02:22:17.714Z,1011.04
2016-11-26T02:23:18.164Z,1011.03
2016-11-26T02:24:17.728Z,1011.06
2016-11-26T02:25:17.830Z,1011.03
2016-11-26T02:26:17.913Z,1011.03
2016-11-26T02:27:17.843Z,1011.05
2016-11-26T02:28:17.936Z,1010.99
2016-11-26T02:29:17.673Z,1010.97
2016-11-26T02:30:18.135Z,1010.97
2016-11-26T02:31:18.207Z,1010.98
2016-11-26T02:32:18.005Z,1010.96
2016-11-26T02:33:17.728Z,1010.94
2016-11-26T02:34:17.800Z,1010.93
2016-11-26T02:35:17.850Z,1010.93
2016-11-26T02:36:17.915Z,1010.9
2016-11-26T02:37:17.816Z,1010.94
2016-11-26T02:38:18.246Z,1010.84
2016-11-26T02:39:18.106Z,1010.85
2016-11-26T02:40:17.892Z,1010.89
2016-11-26T02:41:18.015Z,1010.85
2016-11-26T02:42:17.893Z,1010.9
2016-11-26T02:43:18.039Z,1010.9
2016-11-26T02:44:18.047Z,1010.89
2016-11-26T02:45:17.970Z,1010.89
2016-11-26T02:46:18.005Z,1010.9
2016-11-26T02:47:18.127Z,1010.87
2016-11-26T02:48:17.934Z,1010.89
2016-11-26T02:49:18.013Z,1010.89
2016-11-26T02:50:18.164Z,1010.88
2016-11-26T02:51:18.110Z,1010.85
2016-11-26T02:52:18.515Z,1010.83
2016-11-26T02:53:18.161Z,1010.87
2016-11-26T02:54:18.285Z,1010.84
2016-11-26T02:55:18.251Z,1010.84
2016-11-26T02:56:18.111Z,1010.84
2016-11-26T02:57:18.579Z,1010.85
2016-11-26T02:58:18.309Z,1010.87
2016-11-26T02:59:18.301Z,1010.84
2016-11-26T03:00:18.291Z,1010.8
2016-11-26T03:01:18.272Z,1010.81
2016-11-26T03:02:18.477Z,1010.84
2016-11-26T03:03:18.417Z,1010.8
2016-11-26T03:04:18.382Z,1010.84
2016-11-26T03:05:18.136Z,1010.83
2016-11-26T03:06:18.537Z,1010.84
2016-11-26T03:07:18.395Z,1010.82
2016-11-26T03:08:18.262Z,1010.78
2016-11-26T03:09:18.529Z,1010.83
2016-11-26T03:10:18.355Z,1010.8
2016-11-26T03:11:18.415Z,1010.84
2016-11-26T03:12:18.369Z,1010.87
2016-11-26T03:13:18.442Z,1010.84
2016-11-26T03:14:18.394Z,1010.83
2016-11-26T03:15:18.614Z,1010.81
2016-11-26T03:16:18.487Z,1010.8
2016-11-26T03:17:18.526Z,1010.78
2016-11-26T03:18:18.475Z,1010.78
2016-11-26T03:19:18.390Z,1010.79
2016-11-26T03:20:18.346Z,1010.75
2016-11-26T03:21:18.353Z,1010.75
2016-11-26T03:22:18.496Z,1010.78
2016-11-26T03:23:18.419Z,1010.77
2016-11-26T03:24:18.409Z,1010.76
2016-11-26T03:25:18.636Z,1010.77
2016-11-26T03:26:18.429Z,1010.77
2016-11-26T03:27:18.370Z,1010.82
2016-11-26T03:28:18.743Z,1010.83
2016-11-26T03:29:18.400Z,1010.8
2016-11-26T03:30:19.493Z,1010.77
2016-11-26T03:31:18.627Z,1010.79
2016-11-26T03:32:18.543Z,1010.79
2016-11-26T03:33:18.959Z,1010.8
2016-11-26T03:34:18.456Z,1010.81
2016-11-26T03:35:18.670Z,1010.78
2016-11-26T03:36:18.765Z,1010.81
2016-11-26T03:37:18.484Z,1010.8
2016-11-26T03:38:19.029Z,1010.85
2016-11-26T03:39:19.471Z,1010.82
2016-11-26T03:40:18.731Z,1010.84
2016-11-26T03:41:18.731Z,1010.85
2016-11-26T03:42:18.855Z,1010.81
2016-11-26T03:43:18.827Z,1010.79
2016-11-26T03:44:18.707Z,1010.83
2016-11-26T03:45:18.695Z,1010.79
2016-11-26T03:46:18.889Z,1010.82
2016-11-26T03:47:19.175Z,1010.83
2016-11-26T03:48:19.169Z,1010.83
2016-11-26T03:49:19.064Z,1010.84
2016-11-26T03:50:18.893Z,1010.81
2016-11-26T03:51:18.787Z,1010.81
2016-11-26T03:52:18.800Z,1010.8
2016-11-26T03:53:18.908Z,1010.83
2016-11-26T03:54:18.885Z,1010.81
2016-11-26T03:55:18.997Z,1010.86
2016-11-26T03:56:18.890Z,1010.84
2016-11-26T03:57:19.016Z,1010.8
2016-11-26T03:58:18.816Z,1010.79
2016-11-26T03:59:18.765Z,1010.88
2016-11-26T04:00:18.819Z,1010.81
2016-11-26T04:01:19.015Z,1010.85
2016-11-26T04:02:19.094Z,1010.86
2016-11-26T04:03:19.024Z,1010.85
2016-11-26T04:04:19.031Z,1010.83
2016-11-26T04:05:19.157Z,1010.8
2016-11-26T04:06:18.910Z,1010.78
2016-11-26T04:07:19.019Z,1010.74
2016-11-26T04:08:18.966Z,1010.74
2016-11-26T04:09:19.276Z,1010.71
2016-11-26T04:10:18.965Z,1010.71
2016-11-26T04:11:18.984Z,1010.7
2016-11-26T04:12:19.107Z,1010.72
2016-11-26T04:13:19.036Z,1010.7
2016-11-26T04:14:19.123Z,1010.67
2016-11-26T04:15:18.899Z,1010.67
2016-11-26T04:16:19.585Z,1010.65
2016-11-26T04:17:19.169Z,1010.63
2016-11-26T04:18:19.104Z,1010.63
2016-11-26T04:19:19.132Z,1010.61
2016-11-26T04:20:19.313Z,1010.62
2016-11-26T04:21:19.302Z,1010.55
2016-11-26T04:22:19.035Z,1010.57
2016-11-26T04:23:19.169Z,1010.57
2016-11-26T04:24:19.219Z,1010.62
2016-11-26T04:25:19.133Z,1010.59
2016-11-26T04:26:19.323Z,1010.59
2016-11-26T04:27:19.179Z,1010.61
2016-11-26T04:28:19.822Z,1010.56
2016-11-26T04:29:19.355Z,1010.6
2016-11-26T04:30:19.332Z,1010.55
2016-11-26T04:31:19.287Z,1010.59
2016-11-26T04:32:19.341Z,1010.55
2016-11-26T04:33:19.306Z,1010.57
2016-11-26T04:34:19.300Z,1010.51
2016-11-26T04:35:19.412Z,1010.59
2016-11-26T04:36:19.930Z,1010.58
2016-11-26T04:37:19.754Z,1010.57
2016-11-26T04:38:19.621Z,1010.58
2016-11-26T04:39:19.346Z,1010.58
2016-11-26T04:40:19.218Z,1010.56
2016-11-26T04:41:19.261Z,1010.57
2016-11-26T04:42:19.346Z,1010.57
2016-11-26T04:43:19.690Z,1010.6
2016-11-26T04:44:19.390Z,1010.53
2016-11-26T04:45:19.361Z,1010.59
2016-11-26T04:46:19.566Z,1010.6
2016-11-26T04:47:19.500Z,1010.62
2016-11-26T04:48:19.663Z,1010.59
2016-11-26T04:49:19.469Z,1010.61
2016-11-26T04:50:19.590Z,1010.61
2016-11-26T04:51:19.509Z,1010.61
2016-11-26T04:52:19.562Z,1010.66
2016-11-26T04:53:19.654Z,1010.68
2016-11-26T04:54:19.576Z,1010.7
2016-11-26T04:55:19.439Z,1010.69
2016-11-26T04:56:19.583Z,1010.73
2016-11-26T04:57:19.462Z,1010.7
2016-11-26T04:58:19.505Z,1010.68
2016-11-26T04:59:19.449Z,1010.64
2016-11-26T05:00:19.467Z,1010.6
2016-11-26T05:01:19.562Z,1010.61
2016-11-26T05:02:19.616Z,1010.56
2016-11-26T05:03:19.886Z,1010.52
2016-11-26T05:04:19.534Z,1010.51
2016-11-26T05:05:19.662Z,1010.52
2016-11-26T05:06:19.916Z,1010.49
2016-11-26T05:07:19.659Z,1010.5
2016-11-26T05:08:19.580Z,1010.51
2016-11-26T05:09:19.701Z,1010.47
2016-11-26T05:10:19.796Z,1010.5
2016-11-26T05:11:19.781Z,1010.47
2016-11-26T05:12:20.410Z,1010.47
2016-11-26T05:13:19.995Z,1010.5
2016-11-26T05:14:19.937Z,1010.51
2016-11-26T05:15:19.993Z,1010.49
2016-11-26T05:16:19.767Z,1010.52
2016-11-26T05:17:19.838Z,1010.52
2016-11-26T05:18:20.192Z,1010.49
2016-11-26T05:19:20.232Z,1010.48
2016-11-26T05:20:20.301Z,1010.48
2016-11-26T05:21:19.870Z,1010.52
2016-11-26T05:22:20.100Z,1010.54
2016-11-26T05:23:20.029Z,1010.52
2016-11-26T05:24:20.308Z,1010.58
2016-11-26T05:25:20.344Z,1010.54
2016-11-26T05:26:19.899Z,1010.59
2016-11-26T05:27:19.970Z,1010.51
2016-11-26T05:28:19.898Z,1010.6
2016-11-26T05:29:20.083Z,1010.55
2016-11-26T05:30:20.015Z,1010.57
2016-11-26T05:31:20.043Z,1010.56
2016-11-26T05:32:20.271Z,1010.54
2016-11-26T05:33:20.190Z,1010.55
2016-11-26T05:34:20.223Z,1010.57
2016-11-26T05:35:19.943Z,1010.53
2016-11-26T05:36:20.020Z,1010.55
2016-11-26T05:37:19.983Z,1010.6
2016-11-26T05:38:20.218Z,1010.55
2016-11-26T05:39:20.109Z,1010.57
2016-11-26T05:40:20.157Z,1010.57
2016-11-26T05:41:20.348Z,1010.6
2016-11-26T05:42:20.151Z,1010.58
2016-11-26T05:43:20.172Z,1010.56
2016-11-26T05:44:20.167Z,1010.55
2016-11-26T05:45:19.973Z,1010.51
2016-11-26T05:46:20.123Z,1010.54
2016-11-26T05:47:20.537Z,1010.52
2016-11-26T05:48:20.223Z,1010.51
2016-11-26T05:49:20.442Z,1010.51
2016-11-26T05:50:20.117Z,1010.49
2016-11-26T05:51:20.551Z,1010.52
2016-11-26T05:52:20.429Z,1010.49
2016-11-26T05:53:20.175Z,1010.47
2016-11-26T05:54:20.480Z,1010.52
2016-11-26T05:55:20.294Z,1010.47
2016-11-26T05:56:20.673Z,1010.41
2016-11-26T05:57:20.560Z,1010.42
2016-11-26T05:58:20.653Z,1010.44
2016-11-26T05:59:20.999Z,1010.4
2016-11-26T06:00:20.484Z,1010.4
2016-11-26T06:01:21.073Z,1010.4
2016-11-26T06:02:20.694Z,1010.42
2016-11-26T06:03:21.113Z,1010.42
2016-11-26T06:04:21.039Z,1010.44
2016-11-26T06:05:21.785Z,1010.42
2016-11-26T06:06:20.831Z,1010.4
2016-11-26T06:07:20.590Z,1010.42
2016-11-26T06:08:20.858Z,1010.42
2016-11-26T06:09:20.423Z,1010.39
2016-11-26T06:10:20.830Z,1010.39
2016-11-26T06:11:20.754Z,1010.37
2016-11-26T06:12:20.638Z,1010.36
2016-11-26T06:13:20.482Z,1010.36
2016-11-26T06:14:20.700Z,1010.34
2016-11-26T06:15:20.391Z,1010.36
2016-11-26T06:16:20.736Z,1010.39
2016-11-26T06:17:20.741Z,1010.38
2016-11-26T06:18:20.956Z,1010.4
2016-11-26T06:19:21.050Z,1010.38
2016-11-26T06:20:20.937Z,1010.41
2016-11-26T06:21:20.548Z,1010.39
2016-11-26T06:22:20.599Z,1010.39
2016-11-26T06:23:20.809Z,1010.42
2016-11-26T06:24:20.687Z,1010.41
2016-11-26T06:25:20.977Z,1010.38
2016-11-26T06:26:20.914Z,1010.34
2016-11-26T06:27:20.847Z,1010.39
2016-11-26T06:28:20.984Z,1010.41
2016-11-26T06:29:20.857Z,1010.34
2016-11-26T06:30:20.746Z,1010.34
2016-11-26T06:31:20.907Z,1010.36
2016-11-26T06:32:20.618Z,1010.33
2016-11-26T06:33:20.607Z,1010.31
2016-11-26T06:34:20.977Z,1010.3
2016-11-26T06:35:20.972Z,1010.32
2016-11-26T06:36:20.903Z,1010.3
2016-11-26T06:37:20.976Z,1010.36
2016-11-26T06:38:20.849Z,1010.32
2016-11-26T06:39:21.026Z,1010.37
2016-11-26T06:40:20.890Z,1010.36
2016-11-26T06:41:21.366Z,1010.35
2016-11-26T06:42:20.933Z,1010.37
2016-11-26T06:43:20.973Z,1010.36
2016-11-26T06:44:21.212Z,1010.35
2016-11-26T06:45:21.430Z,1010.4
2016-11-26T06:46:21.427Z,1010.34
2016-11-26T06:47:20.900Z,1010.32
2016-11-26T06:48:21.015Z,1010.32
2016-11-26T06:49:21.087Z,1010.28
2016-11-26T06:50:21.452Z,1010.31
2016-11-26T06:51:20.998Z,1010.27
2016-11-26T06:52:21.320Z,1010.34
2016-11-26T06:53:21.042Z,1010.29
2016-11-26T06:54:20.924Z,1010.31
2016-11-26T06:55:21.283Z,1010.3
2016-11-26T06:56:21.244Z,1010.34
2016-11-26T06:57:21.097Z,1010.32
2016-11-26T06:58:21.244Z,1010.34
2016-11-26T06:59:21.212Z,1010.31
2016-11-26T07:00:21.091Z,1010.29
2016-11-26T07:01:21.204Z,1010.27
2016-11-26T07:02:21.176Z,1010.29
2016-11-26T07:03:21.355Z,1010.27
2016-11-26T07:04:21.173Z,1010.31
2016-11-26T07:05:21.257Z,1010.33
2016-11-26T07:06:21.218Z,1010.39
2016-11-26T07:07:21.204Z,1010.38
2016-11-26T07:08:21.352Z,1010.41
2016-11-26T07:09:21.325Z,1010.42
2016-11-26T07:10:21.587Z,1010.39
2016-11-26T07:11:21.186Z,1010.4
2016-11-26T07:12:21.815Z,1010.41
2016-11-26T07:13:21.657Z,1010.42
2016-11-26T07:14:21.547Z,1010.41
2016-11-26T07:15:21.134Z,1010.43
2016-11-26T07:16:21.224Z,1010.38
2016-11-26T07:17:21.285Z,1010.41
2016-11-26T07:18:21.290Z,1010.43
2016-11-26T07:19:21.275Z,1010.41
2016-11-26T07:20:21.676Z,1010.46
2016-11-26T07:21:21.363Z,1010.48
2016-11-26T07:22:21.324Z,1010.44
2016-11-26T07:23:21.274Z,1010.46
2016-11-26T07:24:21.412Z,1010.43
2016-11-26T07:25:21.511Z,1010.45
2016-11-26T07:26:21.403Z,1010.41
2016-11-26T07:27:21.438Z,1010.44
2016-11-26T07:28:21.480Z,1010.42
2016-11-26T07:29:21.396Z,1010.46
2016-11-26T07:30:21.488Z,1010.48
2016-11-26T07:31:21.555Z,1010.45
2016-11-26T07:32:21.469Z,1010.46
2016-11-26T07:33:21.965Z,1010.45
2016-11-26T07:34:21.668Z,1010.46
2016-11-26T07:35:21.524Z,1010.43
2016-11-26T07:36:21.813Z,1010.46
2016-11-26T07:37:21.443Z,1010.44
2016-11-26T07:38:21.512Z,1010.47
2016-11-26T07:39:21.569Z,1010.49
2016-11-26T07:40:21.874Z,1010.48
2016-11-26T07:41:21.765Z,1010.47
2016-11-26T07:42:21.546Z,1010.46
2016-11-26T07:43:21.726Z,1010.48
2016-11-26T07:44:21.713Z,1010.49
2016-11-26T07:45:21.477Z,1010.46
2016-11-26T07:46:21.514Z,1010.45
2016-11-26T07:47:21.562Z,1010.46
2016-11-26T07:48:21.766Z,1010.47
2016-11-26T07:49:22.000Z,1010.45
2016-11-26T07:50:21.582Z,1010.45
2016-11-26T07:51:21.748Z,1010.46
2016-11-26T07:52:21.893Z,1010.5
2016-11-26T07:53:21.714Z,1010.54
2016-11-26T07:54:21.704Z,1010.51
2016-11-26T07:55:21.918Z,1010.52
2016-11-26T07:56:21.876Z,1010.53
2016-11-26T07:57:21.698Z,1010.5
2016-11-26T07:58:21.878Z,1010.49
2016-11-26T07:59:21.781Z,1010.53
2016-11-26T08:00:22.203Z,1010.51
2016-11-26T08:01:21.832Z,1010.52
2016-11-26T08:02:21.806Z,1010.51
2016-11-26T08:03:21.779Z,1010.5
2016-11-26T08:04:21.670Z,1010.55
2016-11-26T08:05:21.844Z,1010.54
2016-11-26T08:06:22.159Z,1010.54
2016-11-26T08:07:21.785Z,1010.54
2016-11-26T08:08:21.818Z,1010.55
2016-11-26T08:09:21.938Z,1010.52
2016-11-26T08:10:22.298Z,1010.52
2016-11-26T08:11:21.987Z,1010.53
2016-11-26T08:12:22.160Z,1010.5
2016-11-26T08:13:22.013Z,1010.48
2016-11-26T08:14:22.125Z,1010.52
2016-11-26T08:15:22.287Z,1010.49
2016-11-26T08:16:22.458Z,1010.51
2016-11-26T08:17:22.199Z,1010.51
2016-11-26T08:18:22.281Z,1010.53
2016-11-26T08:19:22.161Z,1010.49
2016-11-26T08:20:22.157Z,1010.5
2016-11-26T08:21:22.169Z,1010.5
2016-11-26T08:22:22.222Z,1010.54
2016-11-26T08:23:22.295Z,1010.52
2016-11-26T08:24:22.108Z,1010.51
2016-11-26T08:25:22.123Z,1010.47
2016-11-26T08:26:22.445Z,1010.49
2016-11-26T08:27:22.113Z,1010.54
2016-11-26T08:28:22.006Z,1010.5
2016-11-26T08:29:22.125Z,1010.52
2016-11-26T08:30:22.362Z,1010.5
2016-11-26T08:31:22.144Z,1010.51
2016-11-26T08:32:22.298Z,1010.5
2016-11-26T08:33:22.514Z,1010.49
2016-11-26T08:34:22.503Z,1010.49
2016-11-26T08:35:22.213Z,1010.45
2016-11-26T08:36:22.222Z,1010.46
2016-11-26T08:37:22.453Z,1010.48
2016-11-26T08:38:22.251Z,1010.48
2016-11-26T08:39:22.356Z,1010.43
2016-11-26T08:40:22.386Z,1010.42
2016-11-26T08:41:22.452Z,1010.42
2016-11-26T08:42:22.839Z,1010.41
2016-11-26T08:43:22.515Z,1010.42
2016-11-26T08:44:22.362Z,1010.4
2016-11-26T08:45:22.385Z,1010.44
2016-11-26T08:46:22.376Z,1010.38
2016-11-26T08:47:22.288Z,1010.41
2016-11-26T08:48:22.449Z,1010.36
2016-11-26T08:49:22.335Z,1010.34
2016-11-26T08:50:23.061Z,1010.35
2016-11-26T08:51:22.350Z,1010.35
2016-11-26T08:52:22.313Z,1010.38
2016-11-26T08:53:22.386Z,1010.34
2016-11-26T08:54:22.723Z,1010.32
2016-11-26T08:55:22.426Z,1010.34
2016-11-26T08:56:22.623Z,1010.34
2016-11-26T08:57:22.563Z,1010.3
2016-11-26T08:58:22.611Z,1010.32
2016-11-26T08:59:22.660Z,1010.28
2016-11-26T09:00:22.429Z,1010.29
2016-11-26T09:01:22.655Z,1010.25
2016-11-26T09:02:22.635Z,1010.23
2016-11-26T09:03:23.009Z,1010.26
2016-11-26T09:04:22.584Z,1010.23
2016-11-26T09:05:22.558Z,1010.26
2016-11-26T09:06:22.734Z,1010.27
2016-11-26T09:07:22.722Z,1010.24
2016-11-26T09:08:22.753Z,1010.28
2016-11-26T09:09:22.760Z,1010.29
2016-11-26T09:10:22.523Z,1010.28
2016-11-26T09:11:22.658Z,1010.3
2016-11-26T09:12:22.731Z,1010.3
2016-11-26T09:13:22.676Z,1010.28
2016-11-26T09:14:22.619Z,1010.29
2016-11-26T09:15:22.955Z,1010.33
2016-11-26T09:16:23.013Z,1010.35
2016-11-26T09:17:22.668Z,1010.34
2016-11-26T09:18:22.789Z,1010.31
2016-11-26T09:19:22.610Z,1010.29
2016-11-26T09:20:22.879Z,1010.28
2016-11-26T09:21:23.022Z,1010.24
2016-11-26T09:22:22.652Z,1010.25
2016-11-26T09:23:22.982Z,1010.26
2016-11-26T09:24:23.013Z,1010.21
2016-11-26T09:25:22.763Z,1010.19
2016-11-26T09:26:22.841Z,1010.19
2016-11-26T09:27:22.942Z,1010.21
2016-11-26T09:28:23.079Z,1010.16
2016-11-26T09:29:22.924Z,1010.18
2016-11-26T09:30:23.027Z,1010.15
2016-11-26T09:31:22.904Z,1010.11
2016-11-26T09:32:22.886Z,1010.08
2016-11-26T09:33:22.868Z,1010.09
2016-11-26T09:34:22.859Z,1010.06
2016-11-26T09:35:23.019Z,1010.07
2016-11-26T09:36:23.177Z,1010.03
2016-11-26T09:37:22.927Z,1010.02
2016-11-26T09:38:22.961Z,1010.1
2016-11-26T09:39:23.071Z,1010.07
2016-11-26T09:40:23.030Z,1010.06
2016-11-26T09:41:23.286Z,1010.1
2016-11-26T09:42:23.189Z,1010.11
2016-11-26T09:43:23.114Z,1010.09
2016-11-26T09:44:22.962Z,1010.12
2016-11-26T09:45:23.162Z,1010.12
2016-11-26T09:46:23.306Z,1010.06
2016-11-26T09:47:23.311Z,1010.15
2016-11-26T09:48:23.139Z,1010.09
2016-11-26T09:49:23.367Z,1010.11
2016-11-26T09:50:23.278Z,1010.08
2016-11-26T09:51:23.329Z,1010.09
2016-11-26T09:52:23.286Z,1010.12
2016-11-26T09:53:23.077Z,1010.07
2016-11-26T09:54:23.112Z,1010.08
2016-11-26T09:55:23.515Z,1010.07
2016-11-26T09:56:23.541Z,1010.08
2016-11-26T09:57:23.335Z,1010.01
2016-11-26T09:58:23.216Z,1010.03
2016-11-26T09:59:23.294Z,1010.06
2016-11-26T10:00:23.303Z,1010.03
2016-11-26T10:01:23.355Z,1010.05
2016-11-26T10:02:23.414Z,1010.01
2016-11-26T10:03:23.670Z,1010.03
2016-11-26T10:04:23.395Z,1010.05
2016-11-26T10:05:23.301Z,1010.06
2016-11-26T10:06:23.685Z,1010.02
2016-11-26T10:07:23.451Z,1010.01
2016-11-26T10:08:23.293Z,1010.02
2016-11-26T10:09:23.757Z,1009.98
2016-11-26T10:10:23.391Z,1009.94
2016-11-26T10:11:23.368Z,1009.95
2016-11-26T10:12:23.529Z,1009.91
2016-11-26T10:13:23.418Z,1009.89
2016-11-26T10:14:23.752Z,1009.9
2016-11-26T10:15:23.549Z,1009.86
2016-11-26T10:16:23.451Z,1009.88
2016-11-26T10:17:23.778Z,1009.83
2016-11-26T10:18:23.742Z,1009.85
2016-11-26T10:19:23.558Z,1009.81
2016-11-26T10:20:23.435Z,1009.79
2016-11-26T10:21:23.438Z,1009.78
2016-11-26T10:22:23.585Z,1009.77
2016-11-26T10:23:23.699Z,1009.77
2016-11-26T10:24:23.474Z,1009.76
2016-11-26T10:25:23.856Z,1009.76
2016-11-26T10:26:23.728Z,1009.75
2016-11-26T10:27:23.752Z,1009.75
2016-11-26T10:28:23.679Z,1009.75
2016-11-26T10:29:23.725Z,1009.73
2016-11-26T10:30:23.579Z,1009.69
2016-11-26T10:31:23.707Z,1009.71
2016-11-26T10:32:23.674Z,1009.69
2016-11-26T10:33:23.832Z,1009.68
2016-11-26T10:34:23.828Z,1009.68
2016-11-26T10:35:23.731Z,1009.68
2016-11-26T10:36:23.929Z,1009.68
2016-11-26T10:37:23.756Z,1009.67
2016-11-26T10:38:23.763Z,1009.61
2016-11-26T10:39:23.831Z,1009.62
2016-11-26T10:40:23.751Z,1009.58
2016-11-26T10:41:23.753Z,1009.56
2016-11-26T10:42:23.800Z,1009.53
2016-11-26T10:43:23.738Z,1009.51
2016-11-26T10:44:23.746Z,1009.51
2016-11-26T10:45:24.289Z,1009.53
2016-11-26T10:46:23.832Z,1009.49
2016-11-26T10:47:23.886Z,1009.49
2016-11-26T10:48:23.827Z,1009.46
2016-11-26T10:49:24.010Z,1009.5
2016-11-26T10:50:23.860Z,1009.52
2016-11-26T10:51:23.859Z,1009.53
2016-11-26T10:52:24.028Z,1009.48
2016-11-26T10:53:24.076Z,1009.48
2016-11-26T10:54:24.295Z,1009.49
2016-11-26T10:55:24.179Z,1009.52
2016-11-26T10:56:24.313Z,1009.46
2016-11-26T10:57:24.003Z,1009.48
2016-11-26T10:58:24.011Z,1009.46
2016-11-26T10:59:24.065Z,1009.41
2016-11-26T11:00:24.212Z,1009.37
2016-11-26T11:01:24.081Z,1009.36
2016-11-26T11:02:24.097Z,1009.34
2016-11-26T11:03:24.067Z,1009.33
2016-11-26T11:04:24.096Z,1009.29
2016-11-26T11:05:24.215Z,1009.29
2016-11-26T11:06:24.264Z,1009.27
2016-11-26T11:07:24.164Z,1009.25
2016-11-26T11:08:24.035Z,1009.25
2016-11-26T11:09:24.366Z,1009.24
2016-11-26T11:10:24.190Z,1009.26
2016-11-26T11:11:24.274Z,1009.22
2016-11-26T11:12:24.767Z,1009.23
2016-11-26T11:13:24.258Z,1009.24
2016-11-26T11:14:24.431Z,1009.24
2016-11-26T11:15:24.559Z,1009.18
2016-11-26T11:16:24.385Z,1009.18
2016-11-26T11:17:24.777Z,1009.18
2016-11-26T11:18:24.326Z,1009.17
2016-11-26T11:19:24.750Z,1009.14
2016-11-26T11:20:24.265Z,1009.09
2016-11-26T11:21:24.608Z,1009.1
2016-11-26T11:22:24.636Z,1009.13
2016-11-26T11:23:24.421Z,1009.11
2016-11-26T11:24:24.858Z,1009.11
2016-11-26T11:25:24.358Z,1009.1
2016-11-26T11:26:24.294Z,1009.09
2016-11-26T11:27:24.430Z,1009.09
2016-11-26T11:28:24.406Z,1009.08
2016-11-26T11:29:24.354Z,1009.03
2016-11-26T11:30:24.765Z,1009.02
2016-11-26T11:31:24.653Z,1009.04
2016-11-26T11:32:24.879Z,1009.05
2016-11-26T11:33:24.412Z,1008.99
2016-11-26T11:34:24.886Z,1008.98
2016-11-26T11:35:24.400Z,1008.95
2016-11-26T11:36:24.723Z,1008.93
2016-11-26T11:37:25.147Z,1008.91
2016-11-26T11:38:24.661Z,1008.96
2016-11-26T11:39:24.691Z,1008.9
2016-11-26T11:40:24.652Z,1008.89
2016-11-26T11:41:24.630Z,1008.87
2016-11-26T11:42:24.989Z,1008.9
2016-11-26T11:43:24.690Z,1008.92
2016-11-26T11:44:25.043Z,1008.92
2016-11-26T11:45:24.855Z,1008.92
2016-11-26T11:46:24.736Z,1008.96
2016-11-26T11:47:24.793Z,1008.99
2016-11-26T11:48:24.759Z,1008.95
2016-11-26T11:49:24.841Z,1008.94
2016-11-26T11:50:24.868Z,1008.88
2016-11-26T11:51:25.025Z,1008.88
2016-11-26T11:52:25.079Z,1008.86
2016-11-26T11:53:24.802Z,1008.86
2016-11-26T11:54:24.910Z,1008.81
2016-11-26T11:55:24.957Z,1008.83
2016-11-26T11:56:24.963Z,1008.86
2016-11-26T11:57:24.882Z,1008.88
2016-11-26T11:58:24.846Z,1008.86
2016-11-26T11:59:24.865Z,1008.86
2016-11-26T12:00:24.874Z,1008.85
2016-11-26T12:01:24.864Z,1008.86
2016-11-26T12:02:24.971Z,1008.84
2016-11-26T12:03:25.416Z,1008.79
2016-11-26T12:04:25.045Z,1008.79
2016-11-26T12:05:24.928Z,1008.75
2016-11-26T12:06:24.835Z,1008.8
2016-11-26T12:07:25.166Z,1008.73
2016-11-26T12:08:25.243Z,1008.71